createdAt,value
2023-05-09T00:02:18.493Z,99520.75
2023-05-09T00:04:45.958Z,99520.32
2023-05-09T00:07:13.206Z,99523.68
2023-05-09T00:09:40.085Z,99523.86
2023-05-09T00:12:08.252Z,99523.27
2023-05-09T00:14:35.408Z,99521.77
2023-05-09T00:17:02.252Z,99521.77
2023-05-09T00:19:29.443Z,99519.63
2023-05-09T00:21:56.838Z,99515.52
2023-05-09T00:24:23.682Z,99514.94
2023-05-09T00:26:54.764Z,99515.85
2023-05-09T00:29:25.367Z,99514.46
2023-05-09T00:31:54.328Z,99508.80
2023-05-09T00:34:26.457Z,99506.77
2023-05-09T00:36:55.933Z,99504.79
2023-05-09T00:39:25.705Z,99502.84
2023-05-09T00:41:58.243Z,99503.16
2023-05-09T00:44:31.711Z,99504.29
2023-05-09T00:47:02.037Z,99501.06
2023-05-09T00:49:29.484Z,99500.59
2023-05-09T00:51:57.224Z,99497.84
2023-05-09T00:54:24.404Z,99494.16
2023-05-09T00:56:52.286Z,99488.71
2023-05-09T00:59:19.338Z,99490.99
2023-05-09T01:01:46.710Z,99491.34
2023-05-09T01:04:14.906Z,99490.68
2023-05-09T01:07:03.773Z,99492.86
2023-05-09T01:10:02.286Z,99487.50
2023-05-09T01:12:47.967Z,99483.11
2023-05-09T01:15:15.653Z,99480.08
2023-05-09T01:17:58.053Z,99478.37
2023-05-09T01:20:34.449Z,99477.42
2023-05-09T01:23:31.526Z,99478.70
2023-05-09T01:26:03.605Z,99478.10
2023-05-09T01:29:08.126Z,99473.94
2023-05-09T01:31:41.212Z,99471.43
2023-05-09T01:34:10.988Z,99473.40
2023-05-09T01:36:42.887Z,99469.69
2023-05-09T01:39:14.301Z,99472.75
2023-05-09T01:41:41.577Z,99468.78
2023-05-09T01:44:12.210Z,99466.99
2023-05-09T01:46:40.518Z,99463.15
2023-05-09T01:49:09.880Z,99463.34
2023-05-09T01:51:39.540Z,99455.91
2023-05-09T01:54:07.503Z,99457.55
2023-05-09T01:56:36.569Z,99456.13
2023-05-09T01:59:06.932Z,99454.08
2023-05-09T02:01:35.310Z,99453.12
2023-05-09T02:04:05.450Z,99455.49
2023-05-09T02:06:33.403Z,99457.46
2023-05-09T02:09:02.118Z,99459.64
2023-05-09T02:11:29.023Z,99454.66
2023-05-09T02:13:55.836Z,99457.09
2023-05-09T02:16:22.879Z,99459.59
2023-05-09T02:18:50.302Z,99457.75
2023-05-09T02:21:17.675Z,99448.57
2023-05-09T02:23:44.969Z,99444.02
2023-05-09T02:26:12.382Z,99442.63
2023-05-09T02:28:40.065Z,99441.88
2023-05-09T02:31:09.726Z,99442.18
2023-05-09T02:33:39.622Z,99443.58
2023-05-09T02:36:07.487Z,99443.90
2023-05-09T02:38:36.534Z,99440.91
2023-05-09T02:41:03.709Z,99441.69
2023-05-09T02:43:30.744Z,99442.52
2023-05-09T02:45:57.730Z,99447.13
2023-05-09T02:48:24.675Z,99447.46
2023-05-09T02:50:51.588Z,99448.89
2023-05-09T02:53:18.445Z,99445.48
2023-05-09T02:55:45.560Z,99441.84
2023-05-09T02:58:14.574Z,99446.77
2023-05-09T03:00:43.276Z,99447.45
2023-05-09T03:03:12.564Z,99449.28
2023-05-09T03:05:47.989Z,99444.66
2023-05-09T03:08:20.872Z,99440.38
2023-05-09T03:10:56.940Z,99440.10
2023-05-09T03:13:24.098Z,99437.90
2023-05-09T03:15:51.390Z,99437.42
2023-05-09T03:18:19.156Z,99440.00
2023-05-09T03:20:46.677Z,99440.17
2023-05-09T03:23:13.678Z,99437.33
2023-05-09T03:25:40.665Z,99442.66
2023-05-09T03:28:07.469Z,99443.10
2023-05-09T03:30:34.637Z,99441.91
2023-05-09T03:33:01.856Z,99442.64
2023-05-09T03:35:28.915Z,99444.05
2023-05-09T03:37:55.741Z,99444.71
2023-05-09T03:40:23.047Z,99450.81
2023-05-09T03:42:50.076Z,99449.95
2023-05-09T03:45:17.198Z,99449.01
2023-05-09T03:47:44.043Z,99450.52
2023-05-09T03:50:11.283Z,99444.39
2023-05-09T03:52:38.227Z,99441.13
2023-05-09T03:55:06.085Z,99441.15
2023-05-09T03:57:35.076Z,99442.61
2023-05-09T04:00:03.746Z,99441.23
2023-05-09T04:02:31.491Z,99443.79
2023-05-09T04:04:59.194Z,99445.13
2023-05-09T04:07:28.675Z,99443.80
2023-05-09T04:09:56.405Z,99445.17
2023-05-09T04:12:23.750Z,99448.05
2023-05-09T04:14:52.087Z,99445.54
2023-05-09T04:17:19.349Z,99448.85
2023-05-09T04:19:46.276Z,99447.35
2023-05-09T04:22:13.405Z,99449.38
2023-05-09T04:24:40.598Z,99443.81
2023-05-09T04:27:08.522Z,99443.39
2023-05-09T04:29:36.839Z,99442.96
2023-05-09T04:32:05.515Z,99438.27
2023-05-09T04:34:32.539Z,99438.42
2023-05-09T04:37:02.565Z,99441.84
2023-05-09T04:39:40.135Z,99439.16
2023-05-09T04:42:11.606Z,99437.63
2023-05-09T04:44:43.902Z,99436.60
2023-05-09T04:47:18.584Z,99434.70
2023-05-09T04:49:45.762Z,99436.37
2023-05-09T04:52:12.659Z,99435.13
2023-05-09T04:54:39.710Z,99440.36
2023-05-09T04:57:17.449Z,99434.67
2023-05-09T04:59:45.281Z,99430.39
2023-05-09T05:02:13.192Z,99435.90
2023-05-09T05:04:40.124Z,99435.98
2023-05-09T05:07:07.366Z,99435.41
2023-05-09T05:09:34.487Z,99439.52
2023-05-09T05:12:03.686Z,99440.04
2023-05-09T05:14:31.892Z,99444.23
2023-05-09T05:16:58.805Z,99439.64
2023-05-09T05:19:26.086Z,99446.59
2023-05-09T05:21:53.078Z,99439.16
2023-05-09T05:24:20.028Z,99444.78
2023-05-09T05:26:47.086Z,99440.63
2023-05-09T05:29:14.242Z,99441.14
2023-05-09T05:31:41.209Z,99444.23
2023-05-09T05:34:08.117Z,99439.21
2023-05-09T05:36:34.962Z,99436.55
2023-05-09T05:39:01.789Z,99438.42
2023-05-09T05:41:28.643Z,99440.73
2023-05-09T05:43:55.560Z,99433.69
2023-05-09T05:46:23.283Z,99441.55
2023-05-09T05:48:50.479Z,99440.30
2023-05-09T05:51:17.442Z,99441.34
2023-05-09T05:53:44.567Z,99432.29
2023-05-09T05:56:11.400Z,99434.52
2023-05-09T05:58:38.675Z,99427.90
2023-05-09T06:01:05.827Z,99428.71
2023-05-09T06:03:32.889Z,99431.83
2023-05-09T06:06:00.121Z,99430.73
2023-05-09T06:08:27.143Z,99430.12
2023-05-09T06:10:54.152Z,99429.23
2023-05-09T06:13:21.342Z,99430.73
2023-05-09T06:15:48.717Z,99429.29
2023-05-09T06:18:15.829Z,99421.39
2023-05-09T06:20:42.881Z,99420.50
2023-05-09T06:23:09.918Z,99415.75
2023-05-09T06:25:36.864Z,99409.89
2023-05-09T06:28:04.559Z,99404.77
2023-05-09T06:30:31.800Z,99402.05
2023-05-09T06:32:59.022Z,99398.50
2023-05-09T06:35:27.217Z,99393.33
2023-05-09T06:37:54.161Z,99398.00
2023-05-09T06:40:21.600Z,99398.63
2023-05-09T06:42:48.681Z,99389.13
2023-05-09T06:45:16.141Z,99389.21
2023-05-09T06:47:43.470Z,99391.50
2023-05-09T06:50:10.701Z,99389.29
2023-05-09T06:52:37.549Z,99387.83
2023-05-09T06:55:04.852Z,99386.34
2023-05-09T06:57:32.076Z,99390.21
2023-05-09T06:59:58.984Z,99382.46
2023-05-09T07:02:26.201Z,99379.20
2023-05-09T07:04:53.262Z,99379.02
2023-05-09T07:07:20.970Z,99373.11
2023-05-09T07:09:49.325Z,99371.98
2023-05-09T07:12:19.993Z,99371.84
2023-05-09T07:14:46.928Z,99374.45
2023-05-09T07:17:22.140Z,99377.84
2023-05-09T07:19:51.473Z,99371.15
2023-05-09T07:22:18.788Z,99363.38
2023-05-09T07:24:46.964Z,99364.98
2023-05-09T07:27:14.658Z,99362.06
2023-05-09T07:29:41.761Z,99363.57
2023-05-09T07:32:09.210Z,99364.42
2023-05-09T07:34:37.244Z,99359.20
2023-05-09T07:37:04.336Z,99360.20
2023-05-09T07:39:31.547Z,99363.69
2023-05-09T07:41:58.836Z,99356.53
2023-05-09T07:44:26.432Z,99361.17
2023-05-09T07:46:55.720Z,99356.59
2023-05-09T07:49:22.618Z,99351.84
2023-05-09T07:51:49.634Z,99347.45
2023-05-09T07:54:16.705Z,99338.69
2023-05-09T07:56:43.626Z,99335.76
2023-05-09T07:59:11.101Z,99337.00
2023-05-09T08:01:38.562Z,99339.78
2023-05-09T08:04:07.192Z,99340.98
2023-05-09T08:06:34.393Z,99337.73
2023-05-09T08:09:01.339Z,99340.05
2023-05-09T08:11:28.998Z,99330.71
2023-05-09T08:13:56.126Z,99338.57
2023-05-09T08:16:23.229Z,99333.02
2023-05-09T08:18:50.651Z,99333.19
2023-05-09T08:21:19.157Z,99331.95
2023-05-09T08:23:47.391Z,99330.35
2023-05-09T08:26:14.986Z,99332.63
2023-05-09T08:28:42.446Z,99326.63
2023-05-09T08:31:09.894Z,99323.05
2023-05-09T08:33:37.065Z,99323.28
2023-05-09T08:36:04.991Z,99316.68
2023-05-09T08:38:32.375Z,99319.00
2023-05-09T08:41:03.322Z,99320.34
2023-05-09T08:43:33.691Z,99316.55
2023-05-09T08:46:06.057Z,99316.51
2023-05-09T08:48:37.830Z,99315.05
2023-05-09T08:51:06.600Z,99309.29
2023-05-09T08:53:35.021Z,99305.84
2023-05-09T08:56:04.488Z,99308.67
2023-05-09T08:58:33.882Z,99304.88
2023-05-09T09:01:05.078Z,99305.84
2023-05-09T09:03:33.393Z,99310.64
2023-05-09T09:06:01.349Z,99307.79
2023-05-09T09:08:29.679Z,99303.10
2023-05-09T09:10:57.156Z,99310.96
2023-05-09T09:13:25.044Z,99311.59
2023-05-09T09:15:53.654Z,99312.41
2023-05-09T09:18:28.656Z,99315.59
2023-05-09T09:21:07.411Z,99305.92
2023-05-09T09:23:35.154Z,99300.70
2023-05-09T09:26:05.167Z,99301.11
2023-05-09T09:28:33.079Z,99299.13
2023-05-09T09:31:00.012Z,99296.25
2023-05-09T09:33:29.298Z,99290.76
2023-05-09T09:35:57.778Z,99293.77
2023-05-09T09:38:26.076Z,99291.03
2023-05-09T09:40:52.868Z,99293.04
2023-05-09T09:43:20.228Z,99292.85
2023-05-09T09:45:51.779Z,99291.41
2023-05-09T09:48:18.795Z,99294.64
2023-05-09T09:50:48.978Z,99283.42
2023-05-09T09:53:16.747Z,99286.05
2023-05-09T09:55:53.670Z,99277.59
2023-05-09T09:58:25.388Z,99279.48
2023-05-09T10:01:25.850Z,99277.13
2023-05-09T10:03:53.188Z,99260.73
2023-05-09T10:06:20.982Z,99264.39
2023-05-09T10:08:49.416Z,99261.52
2023-05-09T10:11:17.118Z,99261.92
2023-05-09T10:13:45.745Z,99261.55
2023-05-09T10:16:14.753Z,99264.00
2023-05-09T10:18:43.673Z,99260.68
2023-05-09T10:21:15.680Z,99262.67
2023-05-09T10:23:47.819Z,99257.71
2023-05-09T10:26:25.904Z,99253.02
2023-05-09T10:28:56.411Z,99253.77
2023-05-09T10:31:27.539Z,99247.73
2023-05-09T10:33:59.349Z,99243.25
2023-05-09T10:36:29.090Z,99240.73
2023-05-09T10:38:56.563Z,99235.72
2023-05-09T10:41:24.369Z,99230.65
2023-05-09T10:43:52.148Z,99240.52
2023-05-09T10:46:20.018Z,99239.23
2023-05-09T10:48:48.683Z,99232.20
2023-05-09T10:51:16.918Z,99234.33
2023-05-09T10:53:48.883Z,99228.93
2023-05-09T10:56:33.104Z,99224.27
2023-05-09T10:59:01.147Z,99221.52
2023-05-09T11:01:37.841Z,99216.89
2023-05-09T11:04:14.802Z,99213.71
2023-05-09T11:06:49.548Z,99218.00
2023-05-09T11:09:39.229Z,99218.38
2023-05-09T11:12:06.245Z,99216.66
2023-05-09T11:14:36.147Z,99210.48
2023-05-09T11:17:05.296Z,99204.51
2023-05-09T11:19:59.277Z,99200.85
2023-05-09T11:22:28.977Z,99208.34
2023-05-09T11:25:06.145Z,99210.15
2023-05-09T11:27:45.353Z,99198.30
2023-05-09T11:30:15.168Z,99197.59
2023-05-09T11:32:56.329Z,99180.50
2023-05-09T11:35:26.704Z,99182.97
2023-05-09T11:38:00.833Z,99179.66
2023-05-09T11:40:29.122Z,99184.14
2023-05-09T11:42:59.406Z,99178.55
2023-05-09T11:45:31.748Z,99170.96
2023-05-09T11:47:59.505Z,99160.52
2023-05-09T11:50:26.634Z,99157.80
2023-05-09T11:52:54.380Z,99154.58
2023-05-09T11:55:23.133Z,99155.93
2023-05-09T11:57:54.915Z,99155.54
2023-05-09T12:00:24.338Z,99154.02
2023-05-09T12:02:53.035Z,99147.10
2023-05-09T12:05:22.183Z,99144.30
2023-05-09T12:07:49.548Z,99140.08
2023-05-09T12:10:20.679Z,99132.59
2023-05-09T12:12:49.879Z,99125.59
2023-05-09T12:15:18.265Z,99128.11
2023-05-09T12:17:47.698Z,99124.18
2023-05-09T12:20:16.638Z,99123.06
2023-05-09T12:22:44.359Z,99121.72
2023-05-09T12:25:12.602Z,99116.56
2023-05-09T12:27:41.555Z,99111.98
2023-05-09T12:30:11.074Z,99105.89
2023-05-09T12:32:40.562Z,99104.73
2023-05-09T12:35:10.796Z,99101.43
2023-05-09T12:37:38.038Z,99097.32
2023-05-09T12:40:08.949Z,99103.76
2023-05-09T12:42:36.362Z,99103.27
2023-05-09T12:45:04.190Z,99098.61
2023-05-09T12:47:32.796Z,99088.83
2023-05-09T12:50:04.534Z,99088.16
2023-05-09T12:52:39.772Z,99084.06
2023-05-09T12:55:14.576Z,99081.45
2023-05-09T12:57:43.542Z,99082.02
2023-05-09T13:00:12.458Z,99074.25
2023-05-09T13:02:42.263Z,99070.06
2023-05-09T13:05:11.196Z,99072.66
2023-05-09T13:07:46.311Z,99065.02
2023-05-09T13:10:23.999Z,99067.98
2023-05-09T13:12:52.698Z,99061.81
2023-05-09T13:15:22.743Z,99060.53
2023-05-09T13:17:51.341Z,99061.67
2023-05-09T13:20:19.843Z,99059.86
2023-05-09T13:22:47.707Z,99054.66
2023-05-09T13:25:14.782Z,99046.73
2023-05-09T13:27:41.720Z,99041.81
2023-05-09T13:30:09.274Z,99040.93
2023-05-09T13:32:39.250Z,99037.37
2023-05-09T13:35:08.248Z,99035.20
2023-05-09T13:37:35.851Z,99032.98
2023-05-09T13:40:03.804Z,99030.75
2023-05-09T13:42:31.560Z,99034.41
2023-05-09T13:44:58.396Z,99035.08
2023-05-09T13:47:25.369Z,99028.42
2023-05-09T13:49:53.006Z,99025.20
2023-05-09T13:52:20.366Z,99019.93
2023-05-09T13:54:47.503Z,99011.30
2023-05-09T13:57:14.776Z,99006.80
2023-05-09T13:59:41.911Z,99007.79
2023-05-09T14:02:11.173Z,99007.62
2023-05-09T14:04:38.049Z,99006.77
2023-05-09T14:07:05.609Z,99007.41
2023-05-09T14:09:40.382Z,99000.10
2023-05-09T14:12:07.581Z,98993.31
2023-05-09T14:14:34.625Z,98989.73
2023-05-09T14:17:01.765Z,98983.92
2023-05-09T14:19:30.259Z,98983.88
2023-05-09T14:21:57.309Z,98978.08
2023-05-09T14:24:24.247Z,98981.33
2023-05-09T14:26:51.630Z,98978.84
2023-05-09T14:29:18.774Z,98981.55
2023-05-09T14:31:45.888Z,98984.38
2023-05-09T14:34:13.886Z,98982.60
2023-05-09T14:36:41.254Z,98979.56
2023-05-09T14:39:08.483Z,98980.36
2023-05-09T14:41:36.121Z,98975.06
2023-05-09T14:44:04.037Z,98975.48
2023-05-09T14:46:31.432Z,98978.83
2023-05-09T14:49:04.462Z,98974.48
2023-05-09T14:51:33.719Z,98964.90
2023-05-09T14:54:03.834Z,98962.05
2023-05-09T14:56:32.402Z,98957.29
2023-05-09T14:58:59.273Z,98958.00
2023-05-09T15:01:26.327Z,98953.77
2023-05-09T15:03:53.384Z,98954.32
2023-05-09T15:06:20.866Z,98946.98
2023-05-09T15:08:48.049Z,98946.27
2023-05-09T15:11:15.000Z,98945.50
2023-05-09T15:13:42.058Z,98936.41
2023-05-09T15:16:09.464Z,98933.79
2023-05-09T15:18:37.155Z,98932.57
2023-05-09T15:21:04.497Z,98930.89
2023-05-09T15:23:31.629Z,98923.64
2023-05-09T15:25:58.591Z,98926.58
2023-05-09T15:28:25.991Z,98921.88
2023-05-09T15:30:53.754Z,98915.50
2023-05-09T15:33:21.165Z,98914.96
2023-05-09T15:35:50.614Z,98911.13
2023-05-09T15:38:17.725Z,98914.53
2023-05-09T15:40:45.023Z,98912.60
2023-05-09T15:43:21.177Z,98912.92
2023-05-09T15:46:06.641Z,98906.67
2023-05-09T15:48:46.370Z,98903.85
2023-05-09T15:51:27.600Z,98903.73
2023-05-09T15:53:54.461Z,98905.48
2023-05-09T15:56:22.009Z,98901.68
2023-05-09T15:58:49.167Z,98901.33
2023-05-09T16:01:16.535Z,98894.52
2023-05-09T16:03:43.649Z,98892.40
2023-05-09T16:06:11.018Z,98890.39
2023-05-09T16:08:37.958Z,98887.54
2023-05-09T16:11:05.640Z,98886.09
2023-05-09T16:13:34.333Z,98884.36
2023-05-09T16:16:02.898Z,98883.66
2023-05-09T16:18:30.149Z,98880.25
2023-05-09T16:20:57.184Z,98873.65
2023-05-09T16:23:25.068Z,98877.25
2023-05-09T16:25:52.114Z,98874.14
2023-05-09T16:28:20.194Z,98870.65
2023-05-09T16:30:47.109Z,98869.33
2023-05-09T16:33:14.141Z,98865.52
2023-05-09T16:35:41.612Z,98866.13
2023-05-09T16:38:08.534Z,98865.91
2023-05-09T16:40:35.586Z,98866.33
2023-05-09T16:43:02.730Z,98865.09
2023-05-09T16:45:29.714Z,98857.04
2023-05-09T16:47:58.951Z,98853.48
2023-05-09T16:50:29.189Z,98855.55
2023-05-09T16:52:56.134Z,98850.70
2023-05-09T16:55:23.005Z,98848.89
2023-05-09T16:57:50.030Z,98845.52
2023-05-09T17:00:18.453Z,98839.08
2023-05-09T17:02:45.385Z,98838.75
2023-05-09T17:05:12.486Z,98837.21
2023-05-09T17:07:39.802Z,98837.38
2023-05-09T17:10:07.959Z,98833.85
2023-05-09T17:12:35.556Z,98833.15
2023-05-09T17:15:02.809Z,98833.38
2023-05-09T17:17:30.134Z,98826.94
2023-05-09T17:19:57.994Z,98828.96
2023-05-09T17:22:25.164Z,98827.10
2023-05-09T17:24:52.293Z,98831.85
2023-05-09T17:27:19.577Z,98831.17
2023-05-09T17:29:46.679Z,98831.58
2023-05-09T17:32:14.082Z,98830.46
2023-05-09T17:34:41.085Z,98829.63
2023-05-09T17:37:09.380Z,98828.14
2023-05-09T17:39:39.661Z,98831.80
2023-05-09T17:42:07.250Z,98831.52
2023-05-09T17:44:34.741Z,98834.98
2023-05-09T17:47:02.383Z,98835.63
2023-05-09T17:49:30.194Z,98834.65
2023-05-09T17:51:57.485Z,98830.67
2023-05-09T17:54:24.971Z,98830.11
2023-05-09T17:56:59.428Z,98829.67
2023-05-09T17:59:26.724Z,98829.67
2023-05-09T18:01:54.696Z,98828.55
2023-05-09T18:04:22.520Z,98825.95
2023-05-09T18:06:50.323Z,98826.89
2023-05-09T18:09:17.683Z,98824.80
2023-05-09T18:11:44.924Z,98823.39
2023-05-09T18:14:13.198Z,98823.28
2023-05-09T18:16:40.086Z,98823.42
2023-05-09T18:19:07.326Z,98821.64
2023-05-09T18:21:34.680Z,98818.36
2023-05-09T18:24:02.042Z,98824.00
2023-05-09T18:26:29.355Z,98820.52
2023-05-09T18:28:56.844Z,98823.58
2023-05-09T18:31:24.068Z,98829.76
2023-05-09T18:33:51.889Z,98833.27
2023-05-09T18:36:19.686Z,98837.40
2023-05-09T18:38:48.062Z,98836.14
2023-05-09T18:41:16.200Z,98832.80
2023-05-09T18:43:46.850Z,98833.71
2023-05-09T18:46:18.151Z,98831.63
2023-05-09T18:48:50.453Z,98835.84
2023-05-09T18:51:18.946Z,98840.23
2023-05-09T18:53:47.814Z,98838.48
2023-05-09T18:56:15.291Z,98843.59
2023-05-09T18:58:42.130Z,98837.92
2023-05-09T19:01:11.875Z,98839.58
2023-05-09T19:03:45.849Z,98837.92
2023-05-09T19:06:14.366Z,98836.08
2023-05-09T19:08:42.607Z,98838.45
2023-05-09T19:11:11.866Z,98839.32
2023-05-09T19:13:40.987Z,98839.77
2023-05-09T19:16:09.324Z,98842.55
2023-05-09T19:18:36.675Z,98842.67
2023-05-09T19:21:03.979Z,98840.61
2023-05-09T19:23:31.113Z,98835.54
2023-05-09T19:25:58.124Z,98831.77
2023-05-09T19:28:25.208Z,98833.49
2023-05-09T19:30:52.537Z,98832.67
2023-05-09T19:33:19.920Z,98833.98
2023-05-09T19:35:46.957Z,98833.06
2023-05-09T19:38:13.913Z,98836.91
2023-05-09T19:40:41.727Z,98829.57
2023-05-09T19:43:08.716Z,98837.30
2023-05-09T19:45:35.756Z,98837.73
2023-05-09T19:48:02.812Z,98835.12
2023-05-09T19:50:31.279Z,98833.58
2023-05-09T19:52:58.841Z,98834.02
2023-05-09T19:55:26.488Z,98834.16
2023-05-09T19:57:53.410Z,98837.59
2023-05-09T20:00:20.482Z,98837.48
2023-05-09T20:02:47.598Z,98836.23
2023-05-09T20:05:14.678Z,98836.10
2023-05-09T20:07:42.813Z,98838.15
2023-05-09T20:10:13.056Z,98837.95
2023-05-09T20:12:40.613Z,98836.34
2023-05-09T20:15:08.820Z,98836.33
2023-05-09T20:17:35.782Z,98836.36
2023-05-09T20:20:02.771Z,98835.31
2023-05-09T20:22:30.283Z,98838.95
2023-05-09T20:24:57.379Z,98840.17
2023-05-09T20:27:24.372Z,98837.23
2023-05-09T20:29:51.725Z,98841.10
2023-05-09T20:32:18.999Z,98836.75
2023-05-09T20:34:46.445Z,98838.03
2023-05-09T20:37:13.808Z,98836.55
2023-05-09T20:39:40.683Z,98836.71
2023-05-09T20:42:22.610Z,98837.75
2023-05-09T20:44:50.583Z,98837.92
2023-05-09T20:47:17.950Z,98838.73
2023-05-09T20:49:44.738Z,98840.65
2023-05-09T20:52:11.784Z,98838.12
2023-05-09T20:54:38.988Z,98836.77
2023-05-09T20:57:06.094Z,98837.38
2023-05-09T20:59:33.157Z,98837.67
2023-05-09T21:02:00.530Z,98838.07
2023-05-09T21:04:28.166Z,98837.63
2023-05-09T21:06:55.210Z,98837.89
2023-05-09T21:09:22.526Z,98836.58
2023-05-09T21:11:49.679Z,98839.38
2023-05-09T21:14:16.727Z,98837.38
2023-05-09T21:16:50.229Z,98837.79
2023-05-09T21:19:25.195Z,98836.73
2023-05-09T21:21:52.088Z,98831.77
2023-05-09T21:24:19.176Z,98840.41
2023-05-09T21:26:46.318Z,98834.29
2023-05-09T21:29:13.226Z,98832.84
2023-05-09T21:31:40.176Z,98834.35
2023-05-09T21:34:10.389Z,98834.13
2023-05-09T21:36:41.113Z,98833.19
2023-05-09T21:39:12.079Z,98828.98
2023-05-09T21:41:39.737Z,98831.34
2023-05-09T21:44:11.590Z,98830.95
2023-05-09T21:46:38.613Z,98831.20
2023-05-09T21:49:05.961Z,98831.27
2023-05-09T21:51:33.583Z,98828.03
2023-05-09T21:54:06.483Z,98826.77
2023-05-09T21:56:46.385Z,98825.08
2023-05-09T21:59:13.313Z,98827.89
2023-05-09T22:01:40.069Z,98832.69
2023-05-09T22:04:07.690Z,98829.59
2023-05-09T22:06:34.634Z,98827.60
2023-05-09T22:09:01.605Z,98826.86
2023-05-09T22:11:28.314Z,98826.80
2023-05-09T22:13:55.610Z,98824.99
2023-05-09T22:16:23.009Z,98824.48
2023-05-09T22:18:50.077Z,98822.90
2023-05-09T22:21:16.960Z,98821.11
2023-05-09T22:23:44.271Z,98817.35
2023-05-09T22:26:11.216Z,98820.84
2023-05-09T22:28:38.145Z,98812.77
2023-05-09T22:31:08.405Z,98817.90
2023-05-09T22:33:35.237Z,98815.39
2023-05-09T22:36:02.671Z,98814.75
2023-05-09T22:38:29.406Z,98816.69
2023-05-09T22:40:56.162Z,98813.98
2023-05-09T22:43:24.254Z,98811.82
2023-05-09T22:45:53.665Z,98809.73
2023-05-09T22:48:20.684Z,98808.75
2023-05-09T22:50:47.521Z,98809.70
2023-05-09T22:53:14.439Z,98807.30
2023-05-09T22:55:41.689Z,98809.02
2023-05-09T22:58:08.745Z,98809.50
2023-05-09T23:00:36.122Z,98808.98
2023-05-09T23:03:06.053Z,98803.98
2023-05-09T23:05:33.289Z,98802.27
2023-05-09T23:08:00.125Z,98804.58
2023-05-09T23:10:27.447Z,98802.92
2023-05-09T23:12:54.212Z,98798.69
2023-05-09T23:15:21.229Z,98801.30
2023-05-09T23:17:48.087Z,98799.05
2023-05-09T23:20:15.962Z,98796.48
2023-05-09T23:22:43.093Z,98794.76
2023-05-09T23:25:10.255Z,98790.45
2023-05-09T23:27:40.809Z,98787.50
2023-05-09T23:30:09.927Z,98786.01
2023-05-09T23:32:37.496Z,98784.23
2023-05-09T23:35:05.995Z,98783.52
2023-05-09T23:37:33.014Z,98783.55
2023-05-09T23:39:59.884Z,98779.46
2023-05-09T23:42:26.724Z,98776.23
2023-05-09T23:44:53.655Z,98777.31
2023-05-09T23:47:20.847Z,98774.74
2023-05-09T23:49:48.086Z,98777.32
2023-05-09T23:52:15.961Z,98771.53
2023-05-09T23:54:42.874Z,98770.38
2023-05-09T23:57:10.324Z,98772.45
2023-05-09T23:59:37.256Z,98772.27
